Time;durP1;ratioP1;P1;durP2;ratioP2;P2;SDS_P1;SDS_P2;PMS_P1;PMS_P2;Temp;Humidity;BMP_temperature;BMP_pressure;BME280_temperature;BME280_humidity;BME280_pressure;Samples;Min_cycle;Max_cycle;Signal;HPM_P1;HPM_P2
2021/06/19 00:01:13;;;;;;;9.83;8.83;;;;;;;;;;5028793;28;20505;-69
2021/06/19 00:03:39;;;;;;;8.80;7.50;;;;;;;;;;5018890;28;20770;-68
2021/06/19 00:06:05;;;;;;;9.23;7.60;;;;;;;;;;5033537;28;20391;-68
2021/06/19 00:08:31;;;;;;;8.07;7.27;;;;;;;;;;5026876;28;20434;-68
2021/06/19 00:10:57;;;;;;;8.87;7.37;;;;;;;;;;5034502;28;20815;-69
2021/06/19 00:13:23;;;;;;;8.70;7.73;;;;;;;;;;5035254;28;20988;-68
2021/06/19 00:15:49;;;;;;;10.80;7.87;;;;;;;;;;5035813;28;20411;-68
2021/06/19 00:18:15;;;;;;;13.17;8.03;;;;;;;;;;5032592;28;20537;-68
2021/06/19 00:20:41;;;;;;;12.10;9.13;;;;;;;;;;5035427;28;20407;-68
2021/06/19 00:23:07;;;;;;;9.70;8.80;;;;;;;;;;5033828;28;20496;-68
2021/06/19 00:25:33;;;;;;;10.00;8.17;;;;;;;;;;5035409;28;20795;-68
2021/06/19 00:27:59;;;;;;;10.87;8.00;;;;;;;;;;5032172;28;20981;-68
2021/06/19 00:30:25;;;;;;;10.23;7.33;;;;;;;;;;5034488;28;20774;-67
2021/06/19 00:32:52;;;;;;;9.43;7.50;;;;;;;;;;5033245;28;20418;-68
2021/06/19 00:35:18;;;;;;;8.20;7.00;;;;;;;;;;5034421;28;20931;-68
2021/06/19 00:37:47;;;;;;;10.40;8.30;;;;;;;;;;5033320;28;20537;-68
2021/06/19 00:40:13;;;;;;;9.70;8.00;;;;;;;;;;5035053;28;20438;-68
2021/06/19 00:42:39;;;;;;;11.30;7.77;;;;;;;;;;5033334;28;20843;-68
2021/06/19 00:45:06;;;;;;;11.13;7.90;;;;;;;;;;5035085;28;20417;-68
2021/06/19 00:47:32;;;;;;;9.60;7.50;;;;;;;;;;5032442;28;20454;-68
2021/06/19 00:49:58;;;;;;;12.03;8.37;;;;;;;;;;5035179;28;20423;-68
2021/06/19 00:52:24;;;;;;;9.63;8.30;;;;;;;;;;5032743;28;20422;-68
2021/06/19 00:54:50;;;;;;;10.27;8.60;;;;;;;;;;5034817;28;20453;-68
2021/06/19 00:57:17;;;;;;;9.60;8.40;;;;;;;;;;5032832;28;20423;-68
2021/06/19 00:59:43;;;;;;;8.70;7.90;;;;;;;;;;5034736;28;20490;-68
2021/06/19 01:02:09;;;;;;;10.60;9.50;;;;;;;;;;5032666;28;20434;-68
2021/06/19 01:04:36;;;;;;;9.53;8.07;;;;;;;;;;5034728;28;20414;-68
2021/06/19 01:07:02;;;;;;;10.40;8.93;;;;;;;;;;5032734;28;20635;-68
2021/06/19 01:09:28;;;;;;;12.40;9.00;;;;;;;;;;5034404;28;20423;-68
2021/06/19 01:11:54;;;;;;;10.57;9.47;;;;;;;;;;5032392;28;20795;-68
2021/06/19 01:14:21;;;;;;;10.43;9.33;;;;;;;;;;5028040;28;20804;-68
2021/06/19 01:16:47;;;;;;;9.90;8.90;;;;;;;;;;5017735;28;20437;-68
2021/06/19 01:19:14;;;;;;;9.33;8.43;;;;;;;;;;5034484;28;20776;-68
2021/06/19 01:21:40;;;;;;;11.00;9.20;;;;;;;;;;5032671;28;21631;-68
2021/06/19 01:24:11;;;;;;;9.63;8.63;;;;;;;;;;5013661;28;20435;-68
2021/06/19 01:26:38;;;;;;;10.43;8.40;;;;;;;;;;5012981;28;20428;-68
2021/06/19 01:29:04;;;;;;;8.60;7.63;;;;;;;;;;5020911;28;20450;-68
2021/06/19 01:31:32;;;;;;;10.17;8.30;;;;;;;;;;5013499;28;20841;-68
2021/06/19 01:33:58;;;;;;;11.00;8.03;;;;;;;;;;5034131;28;20443;-68
2021/06/19 01:36:25;;;;;;;11.20;8.83;;;;;;;;;;5017147;28;20779;-68
2021/06/19 01:38:52;;;;;;;11.77;8.90;;;;;;;;;;4994673;28;20543;-68
2021/06/19 01:41:18;;;;;;;10.00;9.00;;;;;;;;;;4994910;28;20419;-68
2021/06/19 01:43:45;;;;;;;11.80;9.23;;;;;;;;;;5032429;28;20422;-68
2021/06/19 01:46:12;;;;;;;10.60;9.50;;;;;;;;;;5033926;28;20413;-68
2021/06/19 01:48:38;;;;;;;11.23;9.23;;;;;;;;;;5013730;28;20507;-68
2021/06/19 01:51:07;;;;;;;11.37;7.83;;;;;;;;;;5003922;28;20444;-68
2021/06/19 01:53:33;;;;;;;10.57;9.23;;;;;;;;;;4995661;28;20457;-68
2021/06/19 01:55:59;;;;;;;10.43;8.00;;;;;;;;;;4996220;28;20421;-68
2021/06/19 01:58:25;;;;;;;9.60;8.60;;;;;;;;;;5023829;28;20814;-68
2021/06/19 02:00:51;;;;;;;10.23;8.20;;;;;;;;;;5033743;28;20403;-68
2021/06/19 02:03:17;;;;;;;14.47;8.73;;;;;;;;;;5026827;28;20915;-68
2021/06/19 02:05:44;;;;;;;10.73;9.63;;;;;;;;;;5033728;28;20487;-68
2021/06/19 02:08:10;;;;;;;10.80;8.47;;;;;;;;;;5031713;28;20537;-68
2021/06/19 02:10:38;;;;;;;10.20;8.63;;;;;;;;;;5033776;28;20421;-68
2021/06/19 02:13:05;;;;;;;9.63;8.20;;;;;;;;;;5031412;28;20911;-68
2021/06/19 02:15:31;;;;;;;8.90;7.83;;;;;;;;;;5030167;28;20490;-68
2021/06/19 02:17:57;;;;;;;9.90;8.33;;;;;;;;;;5019214;28;20457;-68
2021/06/19 02:20:24;;;;;;;11.00;8.80;;;;;;;;;;5033364;28;20517;-68
2021/06/19 02:22:51;;;;;;;12.30;9.10;;;;;;;;;;5024247;28;20792;-68
2021/06/19 02:25:19;;;;;;;11.80;8.73;;;;;;;;;;5013463;28;20439;-68
2021/06/19 02:27:49;;;;;;;9.43;8.53;;;;;;;;;;5016605;28;20446;-68
2021/06/19 02:30:16;;;;;;;10.23;9.10;;;;;;;;;;5033233;28;20407;-68
2021/06/19 02:32:42;;;;;;;12.60;9.23;;;;;;;;;;5031523;28;20428;-68
2021/06/19 02:35:09;;;;;;;9.40;8.50;;;;;;;;;;5033255;28;20923;-68
2021/06/19 02:37:35;;;;;;;11.90;9.60;;;;;;;;;;5030999;28;20510;-68
2021/06/19 02:40:01;;;;;;;11.37;9.53;;;;;;;;;;5031462;28;20430;-68
2021/06/19 02:42:27;;;;;;;14.07;10.77;;;;;;;;;;5012288;28;20411;-68
2021/06/19 02:44:53;;;;;;;11.87;9.13;;;;;;;;;;5033047;28;20410;-68
2021/06/19 02:47:19;;;;;;;10.20;9.17;;;;;;;;;;5031110;28;20401;-68
2021/06/19 02:49:45;;;;;;;10.00;8.80;;;;;;;;;;5032817;28;20921;-68
2021/06/19 02:52:11;;;;;;;11.37;9.50;;;;;;;;;;5032917;28;20487;-68
2021/06/19 02:54:40;;;;;;;11.40;9.40;;;;;;;;;;5029043;28;20454;-68
2021/06/19 02:57:08;;;;;;;13.63;9.47;;;;;;;;;;5033113;28;20488;-68
2021/06/19 02:59:34;;;;;;;10.40;9.30;;;;;;;;;;5031046;28;20987;-68
2021/06/19 03:02:00;;;;;;;12.60;10.57;;;;;;;;;;5032956;28;20405;-68
2021/06/19 03:04:26;;;;;;;11.87;9.03;;;;;;;;;;5013860;28;20427;-68
2021/06/19 03:06:52;;;;;;;13.27;9.43;;;;;;;;;;5013366;28;20773;-68
2021/06/19 03:09:18;;;;;;;13.50;9.77;;;;;;;;;;5013691;28;20470;-67
2021/06/19 03:11:44;;;;;;;12.50;11.10;;;;;;;;;;5017061;28;20408;-68
2021/06/19 03:14:10;;;;;;;11.50;9.70;;;;;;;;;;5030006;28;20795;-68
2021/06/19 03:16:36;;;;;;;14.33;10.27;;;;;;;;;;5035671;28;20887;-68
2021/06/19 03:19:05;;;;;;;12.03;9.83;;;;;;;;;;5034924;28;20435;-68
2021/06/19 03:21:31;;;;;;;10.80;9.70;;;;;;;;;;5027066;28;20430;-67
2021/06/19 03:23:57;;;;;;;11.67;10.47;;;;;;;;;;5012589;28;20428;-68
2021/06/19 03:26:23;;;;;;;11.03;9.63;;;;;;;;;;5017191;28;20489;-68
2021/06/19 03:28:49;;;;;;;11.23;9.73;;;;;;;;;;5018370;28;20866;-68
2021/06/19 03:31:15;;;;;;;10.73;9.63;;;;;;;;;;5016735;28;20403;-68
2021/06/19 03:33:41;;;;;;;11.00;9.20;;;;;;;;;;5024876;28;20477;-68
2021/06/19 03:36:07;;;;;;;10.20;8.93;;;;;;;;;;5036307;28;20839;-68
2021/06/19 03:38:33;;;;;;;10.63;9.50;;;;;;;;;;5024967;28;20477;-67
2021/06/19 03:40:59;;;;;;;9.83;8.60;;;;;;;;;;5016625;28;20416;-68
2021/06/19 03:43:25;;;;;;;11.80;10.33;;;;;;;;;;5022015;28;20414;-68
2021/06/19 03:45:51;;;;;;;11.10;9.50;;;;;;;;;;5036212;28;20879;-68
2021/06/19 03:48:17;;;;;;;10.87;9.77;;;;;;;;;;5033886;28;20462;-68
2021/06/19 03:50:43;;;;;;;10.07;9.00;;;;;;;;;;5036030;28;20406;-68
2021/06/19 03:53:09;;;;;;;10.00;9.03;;;;;;;;;;5033955;28;20418;-68
2021/06/19 03:55:35;;;;;;;10.83;9.73;;;;;;;;;;5036130;28;20395;-68
2021/06/19 03:58:01;;;;;;;12.20;9.17;;;;;;;;;;5031059;28;20446;-68
2021/06/19 04:00:28;;;;;;;10.50;9.40;;;;;;;;;;5016111;28;20427;-68
2021/06/19 04:02:54;;;;;;;11.50;10.10;;;;;;;;;;5015315;28;20884;-68
2021/06/19 04:05:20;;;;;;;12.10;9.70;;;;;;;;;;5036134;28;20880;-68
2021/06/19 04:07:47;;;;;;;12.03;9.70;;;;;;;;;;5032942;28;20426;-68
2021/06/19 04:10:14;;;;;;;10.70;9.50;;;;;;;;;;4996114;28;20405;-68
2021/06/19 04:12:40;;;;;;;11.87;8.70;;;;;;;;;;4996240;28;20429;-68
2021/06/19 04:15:08;;;;;;;10.23;9.13;;;;;;;;;;5034358;28;20458;-68
2021/06/19 04:17:35;;;;;;;10.13;9.13;;;;;;;;;;5035740;28;20469;-68
2021/06/19 04:20:01;;;;;;;12.10;9.73;;;;;;;;;;5033536;28;21040;-68
2021/06/19 04:22:27;;;;;;;12.30;9.07;;;;;;;;;;5035243;28;20398;-68
2021/06/19 04:24:53;;;;;;;15.37;8.67;;;;;;;;;;5033795;28;20441;-68
2021/06/19 04:27:20;;;;;;;12.13;9.43;;;;;;;;;;5035399;28;20894;-68
2021/06/19 04:29:47;;;;;;;10.93;9.67;;;;;;;;;;5017830;28;20423;-68
2021/06/19 04:32:13;;;;;;;12.13;8.90;;;;;;;;;;5015754;28;20412;-68
2021/06/19 04:34:40;;;;;;;13.20;8.87;;;;;;;;;;5014744;28;20464;-68
2021/06/19 04:37:07;;;;;;;10.30;9.20;;;;;;;;;;5014634;28;20430;-68
2021/06/19 04:39:33;;;;;;;13.53;8.90;;;;;;;;;;5015714;28;20419;-68
2021/06/19 04:42:05;;;;;;;10.67;8.50;;;;;;;;;;5029677;28;20427;-68
2021/06/19 04:47:33;;;;;;;11.47;9.43;;;;;;;;;;5001294;28;20819;-68
2021/06/19 04:50:00;;;;;;;10.47;7.30;;;;;;;;;;5034906;28;20401;-68
2021/06/19 04:52:26;;;;;;;12.13;8.70;;;;;;;;;;5032828;28;20443;-68
2021/06/19 04:54:54;;;;;;;10.40;8.00;;;;;;;;;;5034787;28;20441;-68
2021/06/19 04:57:20;;;;;;;9.90;8.90;;;;;;;;;;5025862;28;20943;-68
2021/06/19 04:59:46;;;;;;;12.17;9.27;;;;;;;;;;5023289;28;20416;-68
2021/06/19 05:02:12;;;;;;;9.30;7.83;;;;;;;;;;5013829;28;20447;-68
2021/06/19 05:04:38;;;;;;;11.33;8.47;;;;;;;;;;5015079;28;20792;-68
2021/06/19 05:07:04;;;;;;;13.13;8.40;;;;;;;;;;5029213;28;20520;-68
2021/06/19 05:09:30;;;;;;;10.00;8.47;;;;;;;;;;5032537;28;20517;-68
2021/06/19 05:11:56;;;;;;;12.87;8.60;;;;;;;;;;5032564;28;20938;-68
2021/06/19 05:14:22;;;;;;;9.37;8.00;;;;;;;;;;5034347;28;20446;-68
2021/06/19 05:16:48;;;;;;;11.03;8.20;;;;;;;;;;5032706;28;20419;-68
2021/06/19 05:19:17;;;;;;;10.23;8.30;;;;;;;;;;5034303;28;20938;-68
2021/06/19 05:21:43;;;;;;;10.53;8.00;;;;;;;;;;5032319;28;20439;-68
2021/06/19 05:24:11;;;;;;;10.53;7.63;;;;;;;;;;5034202;28;20410;-67
2021/06/19 05:26:37;;;;;;;8.53;7.73;;;;;;;;;;5032416;28;20789;-67
2021/06/19 05:29:03;;;;;;;9.97;7.80;;;;;;;;;;5034072;28;21004;-67
2021/06/19 05:31:29;;;;;;;8.50;7.60;;;;;;;;;;5032325;28;20510;-68
2021/06/19 05:33:55;;;;;;;10.13;8.20;;;;;;;;;;5032976;28;20446;-68
2021/06/19 05:36:21;;;;;;;10.77;8.00;;;;;;;;;;5032289;28;20926;-68
2021/06/19 05:38:47;;;;;;;9.13;7.20;;;;;;;;;;5034300;28;20419;-68
2021/06/19 05:41:13;;;;;;;11.23;7.67;;;;;;;;;;5026282;28;20442;-68
2021/06/19 05:43:39;;;;;;;9.37;7.30;;;;;;;;;;5033890;28;20790;-68
2021/06/19 05:46:06;;;;;;;11.80;7.90;;;;;;;;;;5022206;28;20487;-68
2021/06/19 05:48:32;;;;;;;10.80;7.40;;;;;;;;;;4994460;28;20463;-68
2021/06/19 05:50:58;;;;;;;14.23;7.70;;;;;;;;;;4998341;28;20424;-68
2021/06/19 05:53:25;;;;;;;10.10;7.30;;;;;;;;;;5014230;28;20452;-68
2021/06/19 05:55:51;;;;;;;8.87;7.83;;;;;;;;;;5010465;28;20450;-68
2021/06/19 05:58:17;;;;;;;9.90;7.70;;;;;;;;;;5033537;28;20434;-68
2021/06/19 06:00:43;;;;;;;12.17;6.90;;;;;;;;;;5030288;28;20395;-68
2021/06/19 06:03:09;;;;;;;10.50;8.03;;;;;;;;;;5013768;28;20885;-68
2021/06/19 06:05:35;;;;;;;9.83;7.20;;;;;;;;;;5013027;28;20866;-68
2021/06/19 06:08:02;;;;;;;12.70;8.20;;;;;;;;;;5013091;28;20522;-68
2021/06/19 06:10:29;;;;;;;10.50;7.73;;;;;;;;;;5014165;28;20411;-68
2021/06/19 06:12:56;;;;;;;14.57;7.20;;;;;;;;;;5031024;28;20468;-68
2021/06/19 06:15:23;;;;;;;11.57;7.47;;;;;;;;;;5031754;28;20856;-68
2021/06/19 06:17:49;;;;;;;10.47;8.07;;;;;;;;;;5014341;28;20458;-68
2021/06/19 06:20:15;;;;;;;9.80;7.10;;;;;;;;;;5013611;28;20804;-68
2021/06/19 06:22:41;;;;;;;11.07;7.17;;;;;;;;;;5028477;28;20530;-68
2021/06/19 06:25:07;;;;;;;10.60;7.40;;;;;;;;;;5033380;28;20430;-68
2021/06/19 06:27:33;;;;;;;8.90;7.00;;;;;;;;;;5031122;28;20465;-68
2021/06/19 06:29:59;;;;;;;12.43;7.07;;;;;;;;;;5033474;28;20457;-68
2021/06/19 06:32:26;;;;;;;7.70;6.20;;;;;;;;;;5031093;28;20423;-68
2021/06/19 06:34:52;;;;;;;8.90;6.53;;;;;;;;;;5032897;28;20455;-68
2021/06/19 06:37:18;;;;;;;9.33;6.77;;;;;;;;;;5020085;28;20415;-68
2021/06/19 06:39:45;;;;;;;10.97;8.00;;;;;;;;;;5012739;28;20416;-63
2021/06/19 06:42:12;;;;;;;11.97;7.20;;;;;;;;;;5022912;28;20808;-66
2021/06/19 06:44:38;;;;;;;10.60;6.03;;;;;;;;;;5021152;28;20415;-64
2021/06/19 06:47:05;;;;;;;10.10;7.30;;;;;;;;;;5021067;28;20788;-64
2021/06/19 06:49:32;;;;;;;9.67;6.77;;;;;;;;;;5030835;28;20462;-64
2021/06/19 06:51:58;;;;;;;9.27;7.10;;;;;;;;;;5031028;28;20422;-64
2021/06/19 06:54:24;;;;;;;12.87;6.27;;;;;;;;;;5032972;28;20456;-64
2021/06/19 06:56:50;;;;;;;10.27;7.30;;;;;;;;;;5031389;28;20797;-66
2021/06/19 06:59:16;;;;;;;12.70;7.30;;;;;;;;;;5032915;28;20422;-64
2021/06/19 07:01:42;;;;;;;11.07;7.67;;;;;;;;;;5030957;28;20415;-64
2021/06/19 07:04:08;;;;;;;11.27;7.37;;;;;;;;;;5033156;28;20779;-65
2021/06/19 07:06:34;;;;;;;7.87;5.57;;;;;;;;;;5030768;28;20429;-65
2021/06/19 07:09:00;;;;;;;7.07;6.10;;;;;;;;;;5032816;28;20509;-65
2021/06/19 07:11:26;;;;;;;12.07;7.50;;;;;;;;;;5030906;28;20509;-65
2021/06/19 07:13:52;;;;;;;15.37;5.73;;;;;;;;;;5032733;28;20454;-65
2021/06/19 07:16:18;;;;;;;10.20;6.83;;;;;;;;;;5031141;28;20428;-65
2021/06/19 07:18:44;;;;;;;8.73;6.80;;;;;;;;;;5031798;28;20466;-65
2021/06/19 07:21:10;;;;;;;13.83;7.00;;;;;;;;;;5029050;28;20764;-64
2021/06/19 07:23:36;;;;;;;10.23;6.10;;;;;;;;;;5012233;28;20432;-64
2021/06/19 07:26:02;;;;;;;10.60;6.40;;;;;;;;;;5012988;28;20778;-65
2021/06/19 07:28:29;;;;;;;9.60;5.70;;;;;;;;;;5026633;28;20843;-64
2021/06/19 07:30:55;;;;;;;12.40;5.90;;;;;;;;;;5032634;28;20484;-64
2021/06/19 07:33:21;;;;;;;10.50;6.33;;;;;;;;;;5016345;28;20521;-64
2021/06/19 07:35:47;;;;;;;12.27;6.30;;;;;;;;;;5012902;28;20885;-64
2021/06/19 07:38:14;;;;;;;10.50;5.80;;;;;;;;;;5024533;28;20800;-64
2021/06/19 07:40:40;;;;;;;19.10;6.80;;;;;;;;;;5031547;28;20422;-64
2021/06/19 07:43:06;;;;;;;11.17;6.00;;;;;;;;;;5030886;28;20513;-65
2021/06/19 07:45:32;;;;;;;12.77;6.77;;;;;;;;;;5032090;28;20425;-64
2021/06/19 07:47:58;;;;;;;11.03;6.17;;;;;;;;;;5009083;28;20521;-64
2021/06/19 07:50:24;;;;;;;11.13;6.07;;;;;;;;;;5012392;28;20412;-64
2021/06/19 07:52:50;;;;;;;10.83;6.07;;;;;;;;;;5010260;28;20428;-64
2021/06/19 07:55:16;;;;;;;8.70;5.73;;;;;;;;;;5012510;28;20455;-64
2021/06/19 07:57:42;;;;;;;9.23;5.37;;;;;;;;;;5023075;28;20803;-67
2021/06/19 08:00:08;;;;;;;9.27;5.70;;;;;;;;;;5026133;28;20416;-69
2021/06/19 08:02:35;;;;;;;8.50;5.73;;;;;;;;;;5021160;28;20434;-68
2021/06/19 08:05:01;;;;;;;7.27;5.67;;;;;;;;;;5035980;28;20464;-68
2021/06/19 08:07:27;;;;;;;13.43;6.87;;;;;;;;;;5033751;28;20922;-68
2021/06/19 08:09:53;;;;;;;12.40;7.03;;;;;;;;;;5035677;28;20456;-68
2021/06/19 08:12:19;;;;;;;13.03;6.97;;;;;;;;;;5033748;28;20429;-68
2021/06/19 08:14:45;;;;;;;8.40;5.70;;;;;;;;;;5035606;28;20446;-69
2021/06/19 08:17:16;;;;;;;11.93;5.77;;;;;;;;;;5034160;28;21663;-68
2021/06/19 08:19:44;;;;;;;11.67;6.03;;;;;;;;;;5036904;28;20383;-69
2021/06/19 08:22:11;;;;;;;7.23;5.77;;;;;;;;;;5023654;28;21702;-68
2021/06/19 08:24:37;;;;;;;7.50;5.50;;;;;;;;;;5035474;28;20406;-68
2021/06/19 08:27:03;;;;;;;13.53;6.03;;;;;;;;;;5033608;28;20812;-68
2021/06/19 08:29:29;;;;;;;9.07;5.70;;;;;;;;;;5029254;28;20447;-68
2021/06/19 08:31:55;;;;;;;9.73;7.20;;;;;;;;;;5014724;28;20404;-68
2021/06/19 08:34:21;;;;;;;10.43;6.07;;;;;;;;;;5034899;28;20446;-68
2021/06/19 08:36:47;;;;;;;7.70;5.67;;;;;;;;;;5035212;28;20480;-69
2021/06/19 08:39:13;;;;;;;12.20;6.77;;;;;;;;;;5033233;28;20476;-69
2021/06/19 08:41:42;;;;;;;7.93;5.30;;;;;;;;;;5035258;28;20402;-69
2021/06/19 08:44:10;;;;;;;12.20;6.60;;;;;;;;;;5033163;28;20427;-68
2021/06/19 08:46:36;;;;;;;9.50;5.83;;;;;;;;;;5035373;28;20414;-68
2021/06/19 08:49:02;;;;;;;9.27;5.90;;;;;;;;;;5032917;28;20470;-69
2021/06/19 08:51:28;;;;;;;8.87;6.57;;;;;;;;;;5035444;28;20414;-68
2021/06/19 08:53:55;;;;;;;6.90;5.60;;;;;;;;;;5032932;28;20489;-68
2021/06/19 08:56:23;;;;;;;12.97;7.80;;;;;;;;;;5033653;28;20403;-68
2021/06/19 08:58:49;;;;;;;7.67;5.37;;;;;;;;;;5033015;28;20450;-68
2021/06/19 09:01:15;;;;;;;10.87;6.27;;;;;;;;;;5035047;28;20472;-68
2021/06/19 09:03:41;;;;;;;8.60;5.80;;;;;;;;;;5032850;28;20834;-69
2021/06/19 09:06:24;;;;;;;15.23;5.83;;;;;;;;;;5034686;28;20402;-68
2021/06/19 09:09:09;;;;;;;8.70;5.87;;;;;;;;;;5019838;28;20766;-68
2021/06/19 09:11:42;;;;;;;6.80;6.10;;;;;;;;;;5014764;28;20404;-69
2021/06/19 09:14:09;;;;;;;8.10;5.73;;;;;;;;;;5029847;28;20560;-68
2021/06/19 09:16:36;;;;;;;12.83;6.00;;;;;;;;;;5034791;28;20402;-69
2021/06/19 09:19:03;;;;;;;14.53;6.27;;;;;;;;;;5032310;28;20979;-68
2021/06/19 09:21:31;;;;;;;10.57;6.00;;;;;;;;;;5034188;28;20410;-69
2021/06/19 09:23:57;;;;;;;10.00;5.80;;;;;;;;;;5020019;28;20510;-69
2021/06/19 09:26:25;;;;;;;8.80;5.47;;;;;;;;;;5014700;28;20824;-69
2021/06/19 09:28:58;;;;;;;11.83;6.13;;;;;;;;;;5013936;28;20528;-68
2021/06/19 09:31:50;;;;;;;14.53;7.63;;;;;;;;;;5014517;28;20518;-68
2021/06/19 09:34:19;;;;;;;8.10;5.90;;;;;;;;;;5022575;28;20459;-68
2021/06/19 09:36:45;;;;;;;6.57;5.63;;;;;;;;;;5023057;28;20420;-69
2021/06/19 09:39:12;;;;;;;7.53;5.53;;;;;;;;;;5024654;28;20918;-69
2021/06/19 09:41:39;;;;;;;15.57;7.33;;;;;;;;;;5034687;28;20723;-69
2021/06/19 09:44:05;;;;;;;9.53;6.80;;;;;;;;;;5031888;28;20458;-69
2021/06/19 09:46:31;;;;;;;12.53;6.13;;;;;;;;;;5034066;28;20407;-69
2021/06/19 09:49:09;;;;;;;9.67;5.07;;;;;;;;;;5021812;28;21085;-69
2021/06/19 09:51:35;;;;;;;9.93;5.07;;;;;;;;;;5012985;28;20430;-69
2021/06/19 09:54:05;;;;;;;7.30;5.37;;;;;;;;;;5021506;28;20458;-69
2021/06/19 09:56:43;;;;;;;9.80;6.10;;;;;;;;;;5033630;28;20880;-69
2021/06/19 09:59:17;;;;;;;8.50;6.90;;;;;;;;;;5031678;28;20442;-68
2021/06/19 10:01:43;;;;;;;9.13;5.90;;;;;;;;;;5033646;28;20383;-69
2021/06/19 10:04:10;;;;;;;7.83;6.37;;;;;;;;;;5031535;28;20431;-68
2021/06/19 10:06:36;;;;;;;13.53;5.60;;;;;;;;;;5033820;28;20510;-69
2021/06/19 10:09:03;;;;;;;8.27;5.90;;;;;;;;;;5031665;28;20450;-68
2021/06/19 10:11:30;;;;;;;9.93;6.07;;;;;;;;;;5033462;28;20398;-69
2021/06/19 10:13:59;;;;;;;14.33;6.97;;;;;;;;;;5016720;28;20463;-68
2021/06/19 10:16:27;;;;;;;9.13;5.83;;;;;;;;;;4994300;28;20404;-69
2021/06/19 10:18:53;;;;;;;8.80;5.80;;;;;;;;;;5006842;28;20450;-68
2021/06/19 10:21:20;;;;;;;8.37;5.53;;;;;;;;;;5033280;28;20914;-69
2021/06/19 10:23:47;;;;;;;8.43;5.53;;;;;;;;;;5031277;28;20445;-68
2021/06/19 10:26:13;;;;;;;9.13;6.03;;;;;;;;;;5021970;28;20432;-68
2021/06/19 10:28:46;;;;;;;7.67;5.60;;;;;;;;;;5017340;28;20528;-68
2021/06/19 10:31:13;;;;;;;13.90;5.53;;;;;;;;;;5033787;28;20410;-69
2021/06/19 10:33:39;;;;;;;11.53;5.90;;;;;;;;;;5031384;28;20484;-69
2021/06/19 10:36:07;;;;;;;14.33;6.30;;;;;;;;;;5031467;28;20449;-68
2021/06/19 10:38:45;;;;;;;8.17;5.93;;;;;;;;;;5033258;28;20426;-69
2021/06/19 10:41:11;;;;;;;6.53;5.67;;;;;;;;;;5026851;28;20784;-68
2021/06/19 10:43:48;;;;;;;7.53;4.90;;;;;;;;;;5013539;28;20415;-69
2021/06/19 10:46:26;;;;;;;8.63;5.47;;;;;;;;;;5017651;28;20422;-69
2021/06/19 10:48:54;;;;;;;10.73;6.17;;;;;;;;;;5021895;28;20558;-69
2021/06/19 10:51:22;;;;;;;12.23;6.17;;;;;;;;;;5011234;28;20437;-69
2021/06/19 10:54:11;;;;;;;8.17;6.77;;;;;;;;;;5024503;28;20442;-69
2021/06/19 10:56:52;;;;;;;7.30;5.87;;;;;;;;;;5026067;28;20434;-69
2021/06/19 10:59:18;;;;;;;6.37;5.50;;;;;;;;;;5030406;28;20449;-74
2021/06/19 11:01:44;;;;;;;10.27;6.97;;;;;;;;;;5018009;28;20952;-69
2021/06/19 11:04:29;;;;;;;8.40;6.13;;;;;;;;;;5034169;28;20435;-69
2021/06/19 11:06:55;;;;;;;8.53;5.50;;;;;;;;;;5031084;28;20441;-69
2021/06/19 11:09:35;;;;;;;10.57;5.90;;;;;;;;;;5033181;28;20427;-69
2021/06/19 11:12:02;;;;;;;8.60;6.03;;;;;;;;;;5031367;28;20456;-70
2021/06/19 11:14:41;;;;;;;8.83;6.20;;;;;;;;;;5032826;28;21083;-69
2021/06/19 11:17:27;;;;;;;8.40;5.70;;;;;;;;;;5032014;28;20426;-69
2021/06/19 11:19:55;;;;;;;10.60;6.70;;;;;;;;;;5015128;28;20407;-69
2021/06/19 11:22:41;;;;;;;7.73;6.20;;;;;;;;;;5030815;28;20457;-68
2021/06/19 11:25:28;;;;;;;7.57;5.23;;;;;;;;;;5032741;28;20429;-69
2021/06/19 11:27:55;;;;;;;11.97;6.97;;;;;;;;;;5031163;28;20450;-69
2021/06/19 11:30:36;;;;;;;7.83;5.50;;;;;;;;;;5034163;28;20413;-69
2021/06/19 11:33:21;;;;;;;12.47;6.40;;;;;;;;;;5032948;28;20422;-69
2021/06/19 11:35:47;;;;;;;7.47;5.90;;;;;;;;;;5037284;28;20480;-69
2021/06/19 11:38:13;;;;;;;9.90;5.77;;;;;;;;;;5035152;28;20588;-69
2021/06/19 11:40:41;;;;;;;14.73;6.30;;;;;;;;;;5037130;28;20382;-69
2021/06/19 11:43:08;;;;;;;9.03;6.27;;;;;;;;;;5034793;28;20426;-69
2021/06/19 11:45:34;;;;;;;8.60;5.67;;;;;;;;;;5035984;28;20399;-69
2021/06/19 11:48:01;;;;;;;7.73;5.40;;;;;;;;;;5034054;28;20506;-69
2021/06/19 11:50:32;;;;;;;7.80;6.83;;;;;;;;;;5036133;28;20413;-69
2021/06/19 11:53:17;;;;;;;10.60;6.33;;;;;;;;;;5034313;28;20414;-69
2021/06/19 11:55:43;;;;;;;9.60;6.50;;;;;;;;;;5036243;28;20418;-69
2021/06/19 11:58:09;;;;;;;8.33;6.13;;;;;;;;;;5015418;28;20443;-69
2021/06/19 12:00:52;;;;;;;9.53;6.00;;;;;;;;;;5016446;28;20502;-69
2021/06/19 12:03:22;;;;;;;9.80;6.33;;;;;;;;;;5031725;28;20428;-68
2021/06/19 12:05:48;;;;;;;9.50;6.30;;;;;;;;;;5035889;28;20418;-68
2021/06/19 12:08:14;;;;;;;12.93;6.60;;;;;;;;;;5032408;28;20515;-68
2021/06/19 12:10:40;;;;;;;8.00;5.70;;;;;;;;;;5035811;28;20464;-68
2021/06/19 12:13:07;;;;;;;8.47;6.60;;;;;;;;;;5036024;28;20406;-67
2021/06/19 12:15:34;;;;;;;10.13;7.00;;;;;;;;;;5034758;28;20481;-68
2021/06/19 12:18:01;;;;;;;12.83;6.47;;;;;;;;;;5036166;28;20430;-68
2021/06/19 12:20:27;;;;;;;11.70;7.13;;;;;;;;;;5033782;28;20507;-68
2021/06/19 12:22:54;;;;;;;8.73;6.47;;;;;;;;;;5035467;28;20403;-68
2021/06/19 12:25:26;;;;;;;9.73;6.70;;;;;;;;;;5033563;28;20426;-68
2021/06/19 12:27:52;;;;;;;9.27;5.60;;;;;;;;;;5035221;28;20920;-68
2021/06/19 12:30:19;;;;;;;11.47;6.33;;;;;;;;;;5033309;28;20512;-69
2021/06/19 12:32:45;;;;;;;6.93;6.33;;;;;;;;;;5035579;28;20767;-69
2021/06/19 12:35:12;;;;;;;6.53;5.23;;;;;;;;;;5033109;28;20457;-68
2021/06/19 12:37:40;;;;;;;8.97;6.23;;;;;;;;;;5035124;28;20923;-69
2021/06/19 12:40:08;;;;;;;12.80;6.07;;;;;;;;;;5033145;28;20472;-69
2021/06/19 12:42:35;;;;;;;6.90;5.63;;;;;;;;;;5021389;28;20829;-69
2021/06/19 12:45:21;;;;;;;9.10;6.90;;;;;;;;;;5027864;28;20422;-69
2021/06/19 12:47:48;;;;;;;7.80;6.67;;;;;;;;;;5033533;28;20931;-68
2021/06/19 12:50:16;;;;;;;8.90;7.00;;;;;;;;;;5033023;28;20428;-68
2021/06/19 12:52:58;;;;;;;7.10;6.10;;;;;;;;;;5032705;28;20939;-68
2021/06/19 12:55:25;;;;;;;8.80;6.00;;;;;;;;;;5032709;28;20537;-69
2021/06/19 12:58:03;;;;;;;7.83;7.03;;;;;;;;;;5029459;28;20454;-69
2021/06/19 13:00:41;;;;;;;8.10;6.47;;;;;;;;;;5030643;28;20431;-68
2021/06/19 13:03:08;;;;;;;7.50;5.60;;;;;;;;;;5033819;28;20407;-68
2021/06/19 13:05:34;;;;;;;7.90;7.10;;;;;;;;;;5017392;28;20428;-69
2021/06/19 13:08:10;;;;;;;12.03;6.43;;;;;;;;;;5014864;28;20427;-69
2021/06/19 13:10:36;;;;;;;12.77;7.10;;;;;;;;;;5026292;28;20425;-69
2021/06/19 13:13:02;;;;;;;8.57;6.53;;;;;;;;;;5034761;28;20510;-69
2021/06/19 13:15:28;;;;;;;6.67;6.03;;;;;;;;;;5032408;28;20463;-69
2021/06/19 13:17:55;;;;;;;9.87;6.33;;;;;;;;;;5034576;28;20423;-68
2021/06/19 13:20:36;;;;;;;7.37;6.10;;;;;;;;;;5032357;28;20423;-69
2021/06/19 13:23:02;;;;;;;11.33;7.40;;;;;;;;;;5034870;28;20387;-69
2021/06/19 13:25:49;;;;;;;12.93;6.20;;;;;;;;;;5027964;28;20422;-68
2021/06/19 13:28:15;;;;;;;11.40;7.13;;;;;;;;;;5020857;28;20438;-68
2021/06/19 13:30:41;;;;;;;12.40;7.00;;;;;;;;;;5032297;28;20437;-68
2021/06/19 13:33:07;;;;;;;8.47;6.17;;;;;;;;;;5019596;28;20496;-68
2021/06/19 13:35:48;;;;;;;8.20;5.83;;;;;;;;;;5024210;28;20549;-68
2021/06/19 13:38:15;;;;;;;12.53;6.53;;;;;;;;;;5034086;28;20429;-68
2021/06/19 13:40:41;;;;;;;7.53;5.90;;;;;;;;;;5020794;28;20426;-68
2021/06/19 13:43:07;;;;;;;8.60;6.00;;;;;;;;;;5014368;28;20503;-68
2021/06/19 13:45:33;;;;;;;11.13;5.63;;;;;;;;;;5023590;28;20433;-68
2021/06/19 13:47:59;;;;;;;7.03;5.57;;;;;;;;;;5027883;28;20471;-68
2021/06/19 13:50:25;;;;;;;6.87;6.00;;;;;;;;;;5022494;28;20477;-68
2021/06/19 13:52:51;;;;;;;8.63;6.27;;;;;;;;;;5033635;28;21126;-68
2021/06/19 13:55:17;;;;;;;9.97;5.77;;;;;;;;;;5028921;28;20573;-68
2021/06/19 13:57:43;;;;;;;10.87;6.47;;;;;;;;;;5033871;28;20565;-68
2021/06/19 14:00:10;;;;;;;8.03;6.00;;;;;;;;;;5023891;28;20822;-68
2021/06/19 14:02:36;;;;;;;7.73;5.20;;;;;;;;;;5013943;28;20421;-68
2021/06/19 14:05:03;;;;;;;6.63;5.97;;;;;;;;;;5018138;28;20458;-68
2021/06/19 14:07:29;;;;;;;8.60;5.87;;;;;;;;;;5033451;28;20441;-68
2021/06/19 14:09:55;;;;;;;8.80;6.20;;;;;;;;;;5031597;28;20426;-68
2021/06/19 14:12:21;;;;;;;7.33;6.33;;;;;;;;;;5033566;28;20460;-68
2021/06/19 14:14:49;;;;;;;9.20;4.80;;;;;;;;;;5031418;28;20471;-68
2021/06/19 14:17:15;;;;;;;9.83;6.03;;;;;;;;;;5033615;28;20413;-68
2021/06/19 14:19:41;;;;;;;7.37;5.23;;;;;;;;;;5030037;28;20937;-68
2021/06/19 14:22:07;;;;;;;9.60;5.70;;;;;;;;;;5013521;28;20411;-68
2021/06/19 14:24:33;;;;;;;9.03;6.13;;;;;;;;;;5013164;28;20415;-68
2021/06/19 14:27:11;;;;;;;7.53;5.80;;;;;;;;;;5033587;28;20399;-69
2021/06/19 14:29:38;;;;;;;7.37;5.13;;;;;;;;;;5030562;28;20469;-67
2021/06/19 14:32:04;;;;;;;9.63;5.33;;;;;;;;;;5013712;28;20743;-68
2021/06/19 14:34:32;;;;;;;8.40;5.50;;;;;;;;;;5012592;28;20451;-68
2021/06/19 14:36:58;;;;;;;7.70;5.13;;;;;;;;;;5011928;28;20466;-69
2021/06/19 14:39:24;;;;;;;6.97;5.33;;;;;;;;;;5027604;28;20442;-69
2021/06/19 14:41:50;;;;;;;10.13;5.47;;;;;;;;;;5024483;28;20427;-69